createdAt,value
2018-09-29T00:00:37.009Z,8.20
2018-09-29T00:03:06.642Z,8.10
2018-09-29T00:05:36.460Z,8.20
2018-09-29T00:08:06.609Z,8.20
2018-09-29T00:10:36.563Z,8.10
2018-09-29T00:13:07.487Z,8.10
2018-09-29T00:15:37.929Z,8.10
2018-09-29T00:18:08.426Z,8.10
2018-09-29T00:20:37.807Z,8.10
2018-09-29T00:23:08.154Z,8.10
2018-09-29T00:25:37.583Z,8.00
2018-09-29T00:28:07.330Z,8.00
2018-09-29T00:30:36.523Z,7.90
2018-09-29T00:33:06.270Z,7.90
2018-09-29T00:35:35.645Z,7.80
2018-09-29T00:38:05.461Z,7.70
2018-09-29T00:40:35.574Z,7.70
2018-09-29T00:43:05.481Z,7.60
2018-09-29T00:45:34.866Z,7.50
2018-09-29T00:48:04.833Z,7.50
2018-09-29T00:50:34.758Z,7.40
2018-09-29T00:53:04.716Z,7.30
2018-09-29T00:55:34.658Z,7.30
2018-09-29T00:58:05.184Z,7.20
2018-09-29T01:00:35.080Z,7.20
2018-09-29T01:03:05.069Z,7.20
2018-09-29T01:05:35.037Z,7.20
2018-09-29T01:08:04.700Z,7.10
2018-09-29T01:10:34.941Z,7.10
2018-09-29T01:13:04.675Z,7.00
2018-09-29T01:15:34.539Z,7.00
2018-09-29T01:18:04.363Z,6.90
2018-09-29T01:20:33.717Z,6.90
2018-09-29T01:23:05.913Z,6.80
2018-09-29T01:25:39.306Z,6.70
2018-09-29T01:28:10.198Z,6.70
2018-09-29T01:30:39.825Z,6.70
2018-09-29T01:33:09.184Z,6.70
2018-09-29T01:35:41.613Z,6.80
2018-09-29T01:38:10.754Z,6.80
2018-09-29T01:40:40.233Z,6.80
2018-09-29T01:43:09.986Z,6.70
2018-09-29T01:45:39.534Z,6.60
2018-09-29T01:48:08.864Z,6.70
2018-09-29T01:50:38.605Z,6.60
2018-09-29T01:53:07.819Z,6.60
2018-09-29T01:55:37.768Z,6.60
2018-09-29T01:58:07.137Z,6.60
2018-09-29T02:00:36.217Z,6.60
2018-09-29T02:03:12.066Z,6.40
2018-09-29T02:05:42.075Z,6.30
2018-09-29T02:08:10.979Z,6.30
2018-09-29T02:10:40.135Z,6.30
2018-09-29T02:13:10.796Z,6.30
2018-09-29T02:15:40.746Z,6.20
2018-09-29T02:18:10.022Z,6.20
2018-09-29T02:20:39.110Z,6.00
2018-09-29T02:23:08.498Z,6.10
2018-09-29T02:25:38.062Z,6.00
2018-09-29T02:28:07.824Z,6.10
2018-09-29T02:30:37.169Z,6.00
2018-09-29T02:33:06.659Z,6.00
2018-09-29T02:35:36.762Z,5.90
2018-09-29T02:38:06.999Z,5.80
2018-09-29T02:40:36.119Z,5.80
2018-09-29T02:43:05.732Z,5.80
2018-09-29T02:45:35.827Z,5.70
2018-09-29T02:48:05.245Z,5.60
2018-09-29T02:50:35.415Z,5.70
2018-09-29T02:53:05.263Z,5.70
2018-09-29T02:55:35.949Z,5.70
2018-09-29T02:58:05.995Z,5.70
2018-09-29T03:00:35.394Z,5.80
2018-09-29T03:03:05.824Z,5.70
2018-09-29T03:05:35.851Z,5.60
2018-09-29T03:08:05.541Z,5.60
2018-09-29T03:10:35.530Z,5.70
2018-09-29T03:13:05.197Z,5.70
2018-09-29T03:15:36.231Z,5.70
2018-09-29T03:18:06.251Z,5.70
2018-09-29T03:20:35.475Z,5.70
2018-09-29T03:23:05.431Z,5.60
2018-09-29T03:25:34.397Z,5.60
2018-09-29T03:28:04.828Z,5.50
2018-09-29T03:30:34.542Z,5.50
2018-09-29T03:33:05.343Z,5.50
2018-09-29T03:35:34.930Z,5.50
2018-09-29T03:38:04.658Z,5.50
2018-09-29T03:40:33.761Z,5.50
2018-09-29T03:43:04.405Z,5.50
2018-09-29T03:45:34.422Z,5.40
2018-09-29T03:48:03.953Z,5.40
2018-09-29T03:50:33.723Z,5.30
2018-09-29T03:53:02.853Z,5.40
2018-09-29T03:55:32.125Z,5.40
2018-09-29T03:58:00.922Z,5.30
2018-09-29T04:00:29.590Z,5.30
2018-09-29T04:02:58.264Z,5.30
2018-09-29T04:05:27.285Z,5.30
2018-09-29T04:07:56.510Z,5.30
2018-09-29T04:10:25.576Z,5.20
2018-09-29T04:12:54.528Z,4.90
2018-09-29T04:15:23.639Z,4.80
2018-09-29T04:17:52.446Z,4.90
2018-09-29T04:20:21.028Z,4.90
2018-09-29T04:22:49.638Z,4.90
2018-09-29T04:25:18.265Z,4.90
2018-09-29T04:27:46.862Z,4.90
2018-09-29T04:30:15.442Z,4.90
2018-09-29T04:32:44.995Z,4.90
2018-09-29T04:35:13.639Z,4.90
2018-09-29T04:37:42.321Z,4.90
2018-09-29T04:40:11.432Z,4.90
2018-09-29T04:42:40.779Z,4.80
2018-09-29T04:45:09.700Z,4.70
2018-09-29T04:47:38.831Z,4.80
2018-09-29T04:50:11.254Z,4.80
2018-09-29T04:52:41.402Z,4.80
2018-09-29T04:55:10.302Z,4.80
2018-09-29T04:57:39.302Z,4.80
2018-09-29T05:00:10.303Z,4.80
2018-09-29T05:02:39.398Z,4.80
2018-09-29T05:05:08.718Z,4.80
2018-09-29T05:07:39.314Z,4.90
2018-09-29T05:10:09.896Z,4.90
2018-09-29T05:12:39.346Z,4.90
2018-09-29T05:15:08.587Z,4.90
2018-09-29T05:17:37.713Z,4.90
2018-09-29T05:20:08.036Z,4.90
2018-09-29T05:22:37.205Z,4.90
2018-09-29T05:25:06.851Z,4.90
2018-09-29T05:27:36.586Z,5.00
2018-09-29T05:30:09.519Z,5.00
2018-09-29T05:32:38.673Z,5.10
2018-09-29T05:35:08.261Z,5.10
2018-09-29T05:37:37.749Z,5.10
2018-09-29T05:40:07.070Z,5.20
2018-09-29T05:42:36.374Z,5.20
2018-09-29T05:45:06.149Z,5.20
2018-09-29T05:47:38.310Z,5.20
2018-09-29T05:50:07.697Z,5.30
2018-09-29T05:52:51.974Z,5.30
2018-09-29T05:55:20.590Z,5.40
2018-09-29T05:57:50.666Z,5.50
2018-09-29T06:00:19.481Z,5.40
2018-09-29T06:02:48.059Z,5.50
2018-09-29T06:05:16.743Z,5.50
2018-09-29T06:07:45.348Z,5.50
2018-09-29T06:10:13.929Z,5.70
2018-09-29T06:12:42.529Z,5.70
2018-09-29T06:15:11.280Z,5.70
2018-09-29T06:17:40.055Z,5.70
2018-09-29T06:20:08.873Z,5.80
2018-09-29T06:22:38.000Z,5.80
2018-09-29T06:25:07.214Z,5.90
2018-09-29T06:27:36.484Z,6.00
2018-09-29T06:30:05.932Z,6.10
2018-09-29T06:32:35.265Z,6.20
2018-09-29T06:35:04.599Z,6.30
2018-09-29T06:37:35.555Z,6.40
2018-09-29T06:40:05.045Z,6.40
2018-09-29T06:42:35.488Z,6.50
2018-09-29T06:45:06.063Z,6.60
2018-09-29T06:47:35.654Z,6.70
2018-09-29T06:50:04.830Z,6.80
2018-09-29T06:52:33.935Z,7.00
2018-09-29T06:55:02.862Z,7.10
2018-09-29T06:57:31.599Z,7.20
2018-09-29T07:00:00.280Z,7.40
2018-09-29T07:02:29.028Z,7.50
2018-09-29T07:04:57.634Z,7.70
2018-09-29T07:07:26.583Z,7.80
2018-09-29T07:09:55.373Z,7.90
2018-09-29T07:12:24.017Z,8.00
2018-09-29T07:14:52.708Z,8.20
2018-09-29T07:17:21.315Z,8.30
2018-09-29T07:19:49.978Z,8.50
2018-09-29T07:22:19.219Z,8.70
2018-09-29T07:24:47.875Z,8.90
2018-09-29T07:27:36.190Z,9.00
2018-09-29T07:30:06.185Z,9.20
2018-09-29T07:32:35.408Z,9.40
2018-09-29T07:35:06.834Z,9.60
2018-09-29T07:37:37.397Z,9.80
2018-09-29T07:40:06.886Z,9.90
2018-09-29T07:42:36.771Z,10.00
2018-09-29T07:45:05.969Z,10.10
2018-09-29T07:47:36.497Z,10.20
2018-09-29T07:50:06.564Z,10.30
2018-09-29T07:52:35.980Z,10.50
2018-09-29T07:55:05.073Z,10.50
2018-09-29T07:57:35.644Z,10.60
2018-09-29T08:00:05.835Z,10.70
2018-09-29T08:02:35.822Z,10.70
2018-09-29T08:05:06.587Z,10.80
2018-09-29T08:07:36.596Z,11.00
2018-09-29T08:10:06.134Z,11.20
2018-09-29T08:12:36.445Z,11.30
2018-09-29T08:15:07.057Z,11.30
2018-09-29T08:17:36.944Z,11.50
2018-09-29T08:20:06.401Z,11.60
2018-09-29T08:22:35.506Z,11.70
2018-09-29T08:25:05.804Z,11.80
2018-09-29T08:27:35.235Z,11.90
2018-09-29T08:30:08.333Z,12.10
2018-09-29T08:32:37.737Z,12.20
2018-09-29T08:35:07.454Z,12.30
2018-09-29T08:37:40.539Z,12.50
2018-09-29T08:40:09.871Z,12.80
2018-09-29T08:42:40.310Z,12.90
2018-09-29T08:45:09.426Z,12.90
2018-09-29T08:47:38.324Z,13.00
2018-09-29T08:50:07.556Z,13.20
2018-09-29T08:52:36.806Z,13.30
2018-09-29T08:55:06.372Z,13.50
2018-09-29T08:57:35.748Z,13.60
2018-09-29T09:00:05.211Z,13.70
2018-09-29T09:02:35.041Z,13.80
2018-09-29T09:05:04.302Z,13.90
2018-09-29T09:07:33.817Z,14.00
2018-09-29T09:10:03.318Z,14.10
2018-09-29T09:12:32.739Z,14.10
2018-09-29T09:15:03.261Z,14.20
2018-09-29T09:17:32.609Z,14.30
2018-09-29T09:20:02.535Z,14.30
2018-09-29T09:22:32.272Z,14.50
2018-09-29T09:25:01.776Z,14.60
2018-09-29T09:27:32.102Z,14.80
2018-09-29T09:30:01.035Z,15.00
2018-09-29T09:32:30.395Z,15.30
2018-09-29T09:34:59.073Z,15.50
2018-09-29T09:37:27.675Z,15.40
2018-09-29T09:39:56.265Z,15.40
2018-09-29T09:42:24.877Z,15.50
2018-09-29T09:44:53.476Z,15.60
2018-09-29T09:47:22.078Z,15.70
2018-09-29T09:49:50.691Z,16.00
2018-09-29T09:52:19.266Z,16.10
2018-09-29T09:54:47.880Z,16.20
2018-09-29T09:57:16.627Z,16.30
2018-09-29T09:59:46.695Z,16.50
2018-09-29T10:02:20.544Z,16.70
2018-09-29T10:04:49.214Z,16.80
2018-09-29T10:07:17.791Z,17.00
2018-09-29T10:09:46.481Z,17.20
2018-09-29T10:12:15.067Z,17.40
2018-09-29T10:14:44.031Z,17.30
2018-09-29T10:17:13.285Z,17.40
2018-09-29T10:19:43.729Z,17.50
2018-09-29T10:22:13.005Z,17.50
2018-09-29T10:24:42.256Z,17.70
2018-09-29T10:27:11.311Z,17.70
2018-09-29T10:29:40.690Z,18.10
2018-09-29T10:32:09.891Z,18.20
2018-09-29T10:34:39.599Z,18.40
2018-09-29T10:37:08.618Z,18.40
2018-09-29T10:39:37.695Z,18.70
2018-09-29T10:42:07.043Z,18.80
2018-09-29T10:44:36.682Z,19.00
2018-09-29T10:47:06.639Z,19.10
2018-09-29T10:49:36.202Z,19.20
2018-09-29T10:52:05.546Z,19.00
2018-09-29T10:54:35.465Z,19.00
2018-09-29T10:57:05.230Z,19.30
2018-09-29T10:59:35.185Z,19.30
2018-09-29T11:02:04.784Z,19.50
2018-09-29T11:04:34.191Z,19.50
2018-09-29T11:07:04.486Z,19.80
2018-09-29T11:09:34.134Z,20.20
2018-09-29T11:12:03.857Z,20.60
2018-09-29T11:14:33.363Z,20.80
2018-09-29T11:17:02.177Z,20.60
2018-09-29T11:19:30.965Z,20.70
2018-09-29T11:21:59.683Z,20.80
2018-09-29T11:24:28.514Z,21.10
2018-09-29T11:26:57.634Z,21.40
2018-09-29T11:29:26.629Z,21.90
2018-09-29T11:31:55.273Z,22.00
2018-09-29T11:34:24.039Z,22.00
2018-09-29T11:36:52.660Z,21.70
2018-09-29T11:39:21.365Z,21.80
2018-09-29T11:41:49.920Z,21.40
2018-09-29T11:44:18.560Z,21.30
2018-09-29T11:46:47.160Z,21.40
2018-09-29T11:49:15.914Z,21.60
2018-09-29T11:51:44.846Z,21.90
2018-09-29T11:54:13.570Z,21.60
2018-09-29T11:56:42.681Z,21.70
2018-09-29T11:59:11.835Z,21.50
2018-09-29T12:01:42.024Z,21.80
2018-09-29T12:04:11.226Z,22.00
2018-09-29T12:06:40.117Z,22.10
2018-09-29T12:09:11.258Z,22.30
2018-09-29T12:11:40.357Z,22.70
2018-09-29T12:14:10.690Z,22.80
2018-09-29T12:16:40.290Z,22.90
2018-09-29T12:19:09.672Z,23.00
2018-09-29T12:21:38.961Z,23.00
2018-09-29T12:24:08.120Z,23.00
2018-09-29T12:26:37.201Z,23.40
2018-09-29T12:29:06.482Z,23.30
2018-09-29T12:31:36.215Z,23.00
2018-09-29T12:34:05.934Z,22.90
2018-09-29T12:36:35.052Z,22.80
2018-09-29T12:39:07.129Z,22.60
2018-09-29T12:41:36.612Z,22.50
2018-09-29T12:44:06.541Z,22.50
2018-09-29T12:46:35.777Z,22.30
2018-09-29T12:49:05.300Z,22.20
2018-09-29T12:51:35.013Z,22.10
2018-09-29T12:54:04.594Z,22.20
2018-09-29T12:56:33.955Z,22.60
2018-09-29T12:59:03.932Z,22.90
2018-09-29T13:01:33.319Z,23.20
2018-09-29T13:04:03.123Z,23.20
2018-09-29T13:06:36.447Z,23.30
2018-09-29T13:09:07.474Z,23.50
2018-09-29T13:11:36.904Z,23.30
2018-09-29T13:14:06.003Z,23.20
2018-09-29T13:16:35.388Z,23.40
2018-09-29T13:19:05.016Z,23.10
2018-09-29T13:21:34.689Z,22.50
2018-09-29T13:24:03.935Z,22.60
2018-09-29T13:26:34.417Z,23.00
2018-09-29T13:29:03.915Z,23.00
2018-09-29T13:31:33.805Z,22.90
2018-09-29T13:34:03.100Z,22.60
2018-09-29T13:36:32.318Z,22.40
2018-09-29T13:39:01.125Z,22.30
2018-09-29T13:41:30.160Z,22.40
2018-09-29T13:43:58.906Z,22.50
2018-09-29T13:46:27.741Z,22.60
2018-09-29T13:48:56.806Z,22.60
2018-09-29T13:51:25.718Z,22.60
2018-09-29T13:53:54.739Z,22.70
2018-09-29T13:56:23.647Z,22.50
2018-09-29T13:58:52.291Z,22.50
2018-09-29T14:01:20.970Z,22.30
2018-09-29T14:03:49.602Z,22.40
2018-09-29T14:06:18.231Z,22.10
2018-09-29T14:08:47.369Z,22.20
2018-09-29T14:11:16.094Z,22.40
2018-09-29T14:13:44.738Z,22.70
2018-09-29T14:16:13.428Z,22.60
2018-09-29T14:18:42.634Z,22.50
2018-09-29T14:21:11.869Z,22.60
2018-09-29T14:23:41.521Z,22.70
2018-09-29T14:26:10.645Z,22.40
2018-09-29T14:28:40.254Z,22.50
2018-09-29T14:31:11.812Z,22.50
2018-09-29T14:33:40.751Z,22.60
2018-09-29T14:36:10.310Z,22.60
2018-09-29T14:38:39.381Z,22.60
2018-09-29T14:41:09.259Z,22.60
2018-09-29T14:43:40.233Z,22.00
2018-09-29T14:46:09.734Z,22.10
2018-09-29T14:48:39.602Z,22.00
2018-09-29T14:51:09.204Z,21.80
2018-09-29T14:53:39.846Z,21.70
2018-09-29T14:56:10.310Z,21.90
2018-09-29T14:58:39.651Z,21.80
2018-09-29T15:01:08.786Z,21.70
2018-09-29T15:03:38.312Z,21.50
2018-09-29T15:06:08.097Z,21.50
2018-09-29T15:08:38.404Z,21.20
2018-09-29T15:11:09.993Z,20.90
2018-09-29T15:13:39.513Z,21.00
2018-09-29T15:16:08.979Z,21.10
2018-09-29T15:18:38.312Z,20.90
2018-09-29T15:21:07.679Z,20.70
2018-09-29T15:23:36.912Z,20.60
2018-09-29T15:26:06.385Z,20.50
2018-09-29T15:28:35.672Z,20.20
2018-09-29T15:31:04.911Z,20.20
2018-09-29T15:33:34.131Z,20.20
2018-09-29T15:36:03.758Z,19.90
2018-09-29T15:38:34.769Z,19.90
2018-09-29T15:41:04.082Z,19.90
2018-09-29T15:43:33.914Z,19.90
2018-09-29T15:46:03.537Z,19.80
2018-09-29T15:48:32.597Z,19.60
2018-09-29T15:51:01.557Z,19.50
2018-09-29T15:53:30.315Z,19.30
2018-09-29T15:55:59.007Z,19.20
2018-09-29T15:58:27.687Z,19.00
2018-09-29T16:00:56.573Z,18.70
2018-09-29T16:03:25.634Z,18.60
2018-09-29T16:05:54.530Z,18.40
2018-09-29T16:08:23.199Z,18.30
2018-09-29T16:10:51.847Z,18.10
2018-09-29T16:13:20.449Z,18.00
2018-09-29T16:15:49.069Z,17.90
2018-09-29T16:18:17.679Z,17.70
2018-09-29T16:20:46.326Z,17.60
2018-09-29T16:23:15.902Z,17.40
2018-09-29T16:25:44.498Z,17.30
2018-09-29T16:28:13.103Z,17.10
2018-09-29T16:30:41.900Z,17.00
2018-09-29T16:33:10.671Z,16.80
2018-09-29T16:35:39.729Z,16.70
2018-09-29T16:38:08.819Z,16.50
2018-09-29T16:40:38.297Z,16.30
2018-09-29T16:43:07.597Z,16.20
2018-09-29T16:45:36.709Z,16.00
2018-09-29T16:48:06.132Z,15.80
2018-09-29T16:50:35.704Z,15.60
2018-09-29T16:53:05.605Z,15.40
2018-09-29T16:55:35.476Z,15.20
2018-09-29T16:58:05.059Z,14.90
2018-09-29T17:00:34.451Z,14.80
2018-09-29T17:03:04.595Z,14.50
2018-09-29T17:05:33.888Z,14.30
2018-09-29T17:08:03.236Z,14.10
2018-09-29T17:10:32.202Z,13.90
2018-09-29T17:13:01.633Z,13.70
2018-09-29T17:15:30.247Z,13.60
2018-09-29T17:17:58.827Z,13.40
2018-09-29T17:20:27.425Z,13.10
2018-09-29T17:22:56.066Z,12.90
2018-09-29T17:25:25.044Z,12.70
2018-09-29T17:27:53.886Z,12.60
2018-09-29T17:30:22.522Z,12.40
2018-09-29T17:32:51.149Z,12.30
2018-09-29T17:35:19.734Z,12.20
2018-09-29T17:37:49.575Z,12.10
2018-09-29T17:40:18.187Z,12.10
2018-09-29T17:42:46.813Z,12.00
2018-09-29T17:45:15.414Z,11.90
2018-09-29T17:47:44.240Z,11.80
2018-09-29T17:50:12.867Z,11.70
2018-09-29T17:52:41.729Z,11.60
2018-09-29T17:55:10.510Z,11.50
2018-09-29T17:57:39.514Z,11.50
2018-09-29T18:00:08.546Z,11.40
2018-09-29T18:02:37.443Z,11.30
2018-09-29T18:05:06.483Z,11.20
2018-09-29T18:07:35.613Z,11.20
2018-09-29T18:10:04.761Z,11.20
2018-09-29T18:12:33.890Z,11.20
2018-09-29T18:15:03.312Z,11.10
2018-09-29T18:17:32.648Z,11.20
2018-09-29T18:20:01.505Z,11.10
2018-09-29T18:22:30.192Z,11.10
2018-09-29T18:24:58.871Z,11.10
2018-09-29T18:27:27.726Z,11.00
2018-09-29T18:29:56.567Z,10.90
2018-09-29T18:32:26.445Z,10.90
2018-09-29T18:34:55.143Z,10.90
2018-09-29T18:37:24.055Z,10.80
2018-09-29T18:39:52.720Z,10.80
2018-09-29T18:42:21.341Z,10.70
2018-09-29T18:44:49.997Z,10.70
2018-09-29T18:47:18.541Z,10.70
2018-09-29T18:49:47.199Z,10.60
2018-09-29T18:52:15.865Z,10.60
2018-09-29T18:54:44.517Z,10.50
2018-09-29T18:57:13.444Z,10.50
2018-09-29T18:59:42.042Z,10.50
2018-09-29T19:02:10.825Z,10.40
2018-09-29T19:04:39.719Z,10.50
2018-09-29T19:07:08.797Z,10.40
2018-09-29T19:09:41.593Z,10.40
2018-09-29T19:12:10.427Z,10.40
2018-09-29T19:14:39.682Z,10.40
2018-09-29T19:17:08.751Z,10.40
2018-09-29T19:19:37.832Z,10.50
2018-09-29T19:22:14.886Z,10.40
2018-09-29T19:24:44.329Z,10.50
2018-09-29T19:27:15.088Z,10.50
2018-09-29T19:29:43.973Z,10.50
2018-09-29T19:32:12.977Z,10.50
2018-09-29T19:34:41.886Z,10.50
2018-09-29T19:37:10.983Z,10.60
2018-09-29T19:39:50.140Z,10.50
2018-09-29T19:42:19.486Z,10.50
2018-09-29T19:44:48.166Z,10.50
2018-09-29T19:47:16.835Z,10.50
2018-09-29T19:49:45.481Z,10.60
2018-09-29T19:52:14.353Z,10.50
2018-09-29T19:54:44.390Z,10.50
2018-09-29T19:57:13.251Z,10.50
2018-09-29T19:59:42.330Z,10.50
2018-09-29T20:02:11.428Z,10.50
2018-09-29T20:04:41.289Z,10.50
2018-09-29T20:07:10.318Z,10.50
2018-09-29T20:09:39.418Z,10.50
2018-09-29T20:15:32.210Z,10.50
2018-09-29T20:18:01.779Z,10.40
2018-09-29T20:20:30.490Z,10.40
2018-09-29T20:22:59.150Z,10.40
2018-09-29T20:25:27.734Z,10.30
2018-09-29T20:27:56.369Z,10.20
2018-09-29T20:30:24.988Z,10.20
2018-09-29T20:32:53.605Z,10.10
2018-09-29T20:35:22.396Z,10.10
2018-09-29T20:37:51.042Z,10.00
2018-09-29T20:40:20.480Z,10.00
2018-09-29T20:42:49.114Z,10.00
2018-09-29T20:45:17.842Z,9.90
2018-09-29T20:47:46.422Z,9.90
2018-09-29T20:50:15.098Z,9.90
2018-09-29T20:52:44.615Z,9.90
2018-09-29T20:55:13.513Z,9.80
2018-09-29T20:57:42.579Z,9.80
2018-09-29T21:00:11.583Z,9.80
2018-09-29T21:02:40.618Z,9.70
2018-09-29T21:05:09.514Z,9.70
2018-09-29T21:07:38.367Z,9.80
2018-09-29T21:10:07.539Z,9.80
2018-09-29T21:12:36.417Z,9.80
2018-09-29T21:15:06.202Z,9.80
2018-09-29T21:17:35.670Z,9.80
2018-09-29T21:20:05.079Z,9.80
2018-09-29T21:22:34.567Z,9.80
2018-09-29T21:25:04.280Z,9.80
2018-09-29T21:27:34.875Z,9.70
2018-09-29T21:30:04.614Z,9.70
2018-09-29T21:32:34.833Z,9.70
2018-09-29T21:35:05.504Z,9.70
2018-09-29T21:37:35.027Z,9.80
2018-09-29T21:40:04.965Z,9.80
2018-09-29T21:42:35.391Z,9.90
2018-09-29T21:45:05.709Z,9.90
2018-09-29T21:47:35.258Z,9.90
2018-09-29T21:50:04.596Z,9.90
2018-09-29T21:52:34.337Z,9.80
2018-09-29T21:55:03.872Z,9.80
2018-09-29T21:57:33.302Z,9.80
2018-09-29T22:00:02.994Z,9.80
2018-09-29T22:02:32.293Z,9.90
2018-09-29T22:05:01.720Z,9.80
2018-09-29T22:07:30.543Z,9.80
2018-09-29T22:09:59.318Z,9.80
2018-09-29T22:12:28.152Z,9.80
2018-09-29T22:14:58.373Z,9.70
2018-09-29T22:17:27.011Z,9.70
2018-09-29T22:19:55.963Z,9.60
2018-09-29T22:22:24.912Z,9.60
2018-09-29T22:24:54.316Z,9.50
2018-09-29T22:27:23.055Z,9.40
2018-09-29T22:29:51.648Z,9.40
2018-09-29T22:32:20.272Z,9.30
2018-09-29T22:34:48.886Z,9.20
2018-09-29T22:37:17.515Z,9.10
2018-09-29T22:39:46.106Z,9.10
2018-09-29T22:42:14.718Z,9.10
2018-09-29T22:44:43.313Z,9.00
2018-09-29T22:47:12.055Z,9.00
2018-09-29T22:49:40.869Z,9.00
2018-09-29T22:52:09.656Z,8.90
2018-09-29T22:54:38.793Z,8.90
2018-09-29T22:57:08.086Z,8.90
2018-09-29T22:59:37.183Z,8.80
2018-09-29T23:02:07.176Z,8.80
2018-09-29T23:04:37.108Z,8.70
2018-09-29T23:07:06.622Z,8.60
2018-09-29T23:09:35.636Z,8.60
2018-09-29T23:12:04.817Z,8.60
2018-09-29T23:14:34.457Z,8.60
2018-09-29T23:17:04.668Z,8.60
2018-09-29T23:19:34.502Z,8.60
2018-09-29T23:22:03.850Z,8.60
2018-09-29T23:24:33.106Z,8.60
2018-09-29T23:27:02.116Z,8.60
2018-09-29T23:29:31.216Z,8.60
2018-09-29T23:31:59.925Z,8.50
2018-09-29T23:34:28.575Z,8.50
2018-09-29T23:36:57.285Z,8.50
2018-09-29T23:39:26.218Z,8.50
2018-09-29T23:41:55.128Z,8.40
2018-09-29T23:44:24.029Z,8.50
2018-09-29T23:46:52.697Z,8.50
2018-09-29T23:49:21.323Z,8.50
2018-09-29T23:51:49.976Z,8.40
2018-09-29T23:54:18.635Z,8.40
2018-09-29T23:56:47.166Z,8.40
2018-09-29T23:59:16.601Z,8.40
